sensor_id;sensor_type;location;lat;lon;timestamp;P1;durP1;ratioP1;P2;durP2;ratioP2
7529;SDS011;3806;52.270;10.544;2023-07-31T00:00:33;3.00;;;1.40;;
7529;SDS011;3806;52.270;10.544;2023-07-31T00:02:59;5.00;;;1.98;;
7529;SDS011;3806;52.270;10.544;2023-07-31T00:05:24;2.05;;;1.33;;
7529;SDS011;3806;52.270;10.544;2023-07-31T00:07:50;4.13;;;1.35;;
7529;SDS011;3806;52.270;10.544;2023-07-31T00:10:16;2.90;;;1.85;;
7529;SDS011;3806;52.270;10.544;2023-07-31T00:12:42;4.13;;;1.40;;
7529;SDS011;3806;52.270;10.544;2023-07-31T00:15:09;2.95;;;1.27;;
7529;SDS011;3806;52.270;10.544;2023-07-31T00:17:34;2.03;;;1.20;;
7529;SDS011;3806;52.270;10.544;2023-07-31T00:20:01;2.35;;;1.42;;
7529;SDS011;3806;52.270;10.544;2023-07-31T00:22:27;6.78;;;2.10;;
7529;SDS011;3806;52.270;10.544;2023-07-31T00:24:52;2.25;;;1.27;;
7529;SDS011;3806;52.270;10.544;2023-07-31T00:27:18;4.78;;;1.80;;
7529;SDS011;3806;52.270;10.544;2023-07-31T00:29:44;1.27;;;0.93;;
7529;SDS011;3806;52.270;10.544;2023-07-31T00:32:09;1.55;;;1.30;;
7529;SDS011;3806;52.270;10.544;2023-07-31T00:34:37;1.95;;;1.23;;
7529;SDS011;3806;52.270;10.544;2023-07-31T00:37:03;4.85;;;1.60;;
7529;SDS011;3806;52.270;10.544;2023-07-31T00:39:29;2.88;;;1.45;;
7529;SDS011;3806;52.270;10.544;2023-07-31T00:41:55;4.68;;;1.40;;
7529;SDS011;3806;52.270;10.544;2023-07-31T00:44:21;2.92;;;1.40;;
7529;SDS011;3806;52.270;10.544;2023-07-31T00:46:46;3.00;;;1.15;;
7529;SDS011;3806;52.270;10.544;2023-07-31T00:49:13;2.95;;;1.35;;
7529;SDS011;3806;52.270;10.544;2023-07-31T00:51:38;5.38;;;1.08;;
7529;SDS011;3806;52.270;10.544;2023-07-31T00:54:04;2.78;;;1.40;;
7529;SDS011;3806;52.270;10.544;2023-07-31T00:56:31;2.50;;;1.20;;
7529;SDS011;3806;52.270;10.544;2023-07-31T00:58:57;3.78;;;1.40;;
7529;SDS011;3806;52.270;10.544;2023-07-31T01:01:23;2.92;;;1.40;;
7529;SDS011;3806;52.270;10.544;2023-07-31T01:03:49;4.43;;;1.00;;
7529;SDS011;3806;52.270;10.544;2023-07-31T01:09:04;4.43;;;1.60;;
7529;SDS011;3806;52.270;10.544;2023-07-31T01:11:45;3.05;;;1.40;;
7529;SDS011;3806;52.270;10.544;2023-07-31T01:14:15;4.63;;;2.15;;
7529;SDS011;3806;52.270;10.544;2023-07-31T01:16:41;2.30;;;1.35;;
7529;SDS011;3806;52.270;10.544;2023-07-31T01:19:06;3.92;;;1.38;;
7529;SDS011;3806;52.270;10.544;2023-07-31T01:24:07;5.20;;;1.75;;
7529;SDS011;3806;52.270;10.544;2023-07-31T01:27:12;3.28;;;1.42;;
7529;SDS011;3806;52.270;10.544;2023-07-31T01:32:15;2.08;;;1.30;;
7529;SDS011;3806;52.270;10.544;2023-07-31T01:34:44;1.60;;;1.02;;
7529;SDS011;3806;52.270;10.544;2023-07-31T01:37:10;2.88;;;1.27;;
7529;SDS011;3806;52.270;10.544;2023-07-31T01:39:36;3.67;;;1.55;;
7529;SDS011;3806;52.270;10.544;2023-07-31T01:42:01;5.13;;;1.45;;
7529;SDS011;3806;52.270;10.544;2023-07-31T01:44:27;4.75;;;1.25;;
7529;SDS011;3806;52.270;10.544;2023-07-31T01:46:53;2.75;;;1.00;;
7529;SDS011;3806;52.270;10.544;2023-07-31T01:49:18;4.05;;;0.98;;
7529;SDS011;3806;52.270;10.544;2023-07-31T01:51:44;4.15;;;1.30;;
7529;SDS011;3806;52.270;10.544;2023-07-31T01:54:09;3.28;;;1.30;;
7529;SDS011;3806;52.270;10.544;2023-07-31T01:56:36;1.63;;;1.00;;
7529;SDS011;3806;52.270;10.544;2023-07-31T01:59:01;2.40;;;1.17;;
7529;SDS011;3806;52.270;10.544;2023-07-31T02:01:27;2.10;;;0.85;;
7529;SDS011;3806;52.270;10.544;2023-07-31T02:03:52;2.53;;;1.17;;
7529;SDS011;3806;52.270;10.544;2023-07-31T02:06:19;1.55;;;0.90;;
7529;SDS011;3806;52.270;10.544;2023-07-31T02:08:44;2.00;;;1.05;;
7529;SDS011;3806;52.270;10.544;2023-07-31T02:11:10;2.28;;;1.13;;
7529;SDS011;3806;52.270;10.544;2023-07-31T02:13:35;3.15;;;1.25;;
7529;SDS011;3806;52.270;10.544;2023-07-31T02:16:01;3.63;;;1.48;;
7529;SDS011;3806;52.270;10.544;2023-07-31T02:18:26;2.10;;;1.20;;
7529;SDS011;3806;52.270;10.544;2023-07-31T02:20:52;4.63;;;1.60;;
7529;SDS011;3806;52.270;10.544;2023-07-31T02:23:18;4.65;;;1.30;;
7529;SDS011;3806;52.270;10.544;2023-07-31T02:25:44;1.65;;;1.00;;
7529;SDS011;3806;52.270;10.544;2023-07-31T02:28:10;1.52;;;1.00;;
7529;SDS011;3806;52.270;10.544;2023-07-31T02:30:36;3.08;;;1.52;;
7529;SDS011;3806;52.270;10.544;2023-07-31T02:33:01;3.25;;;1.30;;
7529;SDS011;3806;52.270;10.544;2023-07-31T02:35:27;3.80;;;1.38;;
7529;SDS011;3806;52.270;10.544;2023-07-31T02:37:52;1.20;;;1.00;;
7529;SDS011;3806;52.270;10.544;2023-07-31T02:40:18;2.92;;;1.00;;
7529;SDS011;3806;52.270;10.544;2023-07-31T02:42:44;1.63;;;0.80;;
7529;SDS011;3806;52.270;10.544;2023-07-31T02:45:09;3.08;;;1.15;;
7529;SDS011;3806;52.270;10.544;2023-07-31T02:47:35;1.67;;;1.00;;
7529;SDS011;3806;52.270;10.544;2023-07-31T02:50:01;1.52;;;1.00;;
7529;SDS011;3806;52.270;10.544;2023-07-31T02:52:30;4.50;;;1.00;;
7529;SDS011;3806;52.270;10.544;2023-07-31T02:54:56;2.53;;;1.00;;
7529;SDS011;3806;52.270;10.544;2023-07-31T02:57:22;2.05;;;1.13;;
7529;SDS011;3806;52.270;10.544;2023-07-31T02:59:48;1.40;;;1.10;;
7529;SDS011;3806;52.270;10.544;2023-07-31T03:02:13;2.65;;;1.08;;
7529;SDS011;3806;52.270;10.544;2023-07-31T03:04:39;1.35;;;0.88;;
7529;SDS011;3806;52.270;10.544;2023-07-31T03:07:05;2.45;;;1.00;;
7529;SDS011;3806;52.270;10.544;2023-07-31T03:09:30;1.98;;;1.23;;
7529;SDS011;3806;52.270;10.544;2023-07-31T03:11:56;2.03;;;1.27;;
7529;SDS011;3806;52.270;10.544;2023-07-31T03:14:21;3.83;;;1.38;;
7529;SDS011;3806;52.270;10.544;2023-07-31T03:16:47;3.50;;;1.30;;
7529;SDS011;3806;52.270;10.544;2023-07-31T03:19:13;5.07;;;1.55;;
7529;SDS011;3806;52.270;10.544;2023-07-31T03:21:39;1.48;;;1.05;;
7529;SDS011;3806;52.270;10.544;2023-07-31T03:24:04;3.35;;;1.30;;
7529;SDS011;3806;52.270;10.544;2023-07-31T03:26:33;1.75;;;1.20;;
7529;SDS011;3806;52.270;10.544;2023-07-31T03:28:58;1.77;;;1.35;;
7529;SDS011;3806;52.270;10.544;2023-07-31T03:31:24;3.35;;;1.42;;
7529;SDS011;3806;52.270;10.544;2023-07-31T03:33:49;1.75;;;1.20;;
7529;SDS011;3806;52.270;10.544;2023-07-31T03:36:15;1.90;;;1.05;;
7529;SDS011;3806;52.270;10.544;2023-07-31T03:38:40;2.13;;;1.50;;
7529;SDS011;3806;52.270;10.544;2023-07-31T03:41:06;2.67;;;1.42;;
7529;SDS011;3806;52.270;10.544;2023-07-31T03:43:31;1.67;;;1.20;;
7529;SDS011;3806;52.270;10.544;2023-07-31T03:45:59;4.85;;;1.45;;
7529;SDS011;3806;52.270;10.544;2023-07-31T03:48:25;3.75;;;1.58;;
7529;SDS011;3806;52.270;10.544;2023-07-31T03:50:51;3.63;;;1.65;;
7529;SDS011;3806;52.270;10.544;2023-07-31T03:53:16;2.95;;;1.40;;
7529;SDS011;3806;52.270;10.544;2023-07-31T03:55:42;3.63;;;1.30;;
7529;SDS011;3806;52.270;10.544;2023-07-31T03:58:07;1.25;;;0.90;;
7529;SDS011;3806;52.270;10.544;2023-07-31T04:00:33;2.95;;;1.10;;
7529;SDS011;3806;52.270;10.544;2023-07-31T04:02:58;2.97;;;0.95;;
7529;SDS011;3806;52.270;10.544;2023-07-31T04:05:24;2.00;;;1.13;;
7529;SDS011;3806;52.270;10.544;2023-07-31T04:07:50;1.20;;;0.73;;
7529;SDS011;3806;52.270;10.544;2023-07-31T04:10:15;1.73;;;1.38;;
7529;SDS011;3806;52.270;10.544;2023-07-31T04:12:40;2.53;;;0.85;;
7529;SDS011;3806;52.270;10.544;2023-07-31T04:15:06;1.73;;;0.65;;
7529;SDS011;3806;52.270;10.544;2023-07-31T04:17:32;2.25;;;0.95;;
7529;SDS011;3806;52.270;10.544;2023-07-31T04:19:57;1.02;;;0.70;;
7529;SDS011;3806;52.270;10.544;2023-07-31T04:22:23;1.00;;;0.90;;
7529;SDS011;3806;52.270;10.544;2023-07-31T04:24:49;2.22;;;1.15;;
7529;SDS011;3806;52.270;10.544;2023-07-31T04:27:14;1.35;;;0.82;;
7529;SDS011;3806;52.270;10.544;2023-07-31T04:29:40;2.33;;;0.90;;
7529;SDS011;3806;52.270;10.544;2023-07-31T04:32:07;0.80;;;0.63;;
7529;SDS011;3806;52.270;10.544;2023-07-31T04:34:33;4.13;;;0.80;;
7529;SDS011;3806;52.270;10.544;2023-07-31T04:36:58;1.55;;;0.68;;
7529;SDS011;3806;52.270;10.544;2023-07-31T04:39:24;2.13;;;0.80;;
7529;SDS011;3806;52.270;10.544;2023-07-31T04:41:49;1.70;;;0.80;;
7529;SDS011;3806;52.270;10.544;2023-07-31T04:44:15;1.73;;;1.05;;
7529;SDS011;3806;52.270;10.544;2023-07-31T04:46:40;1.25;;;0.90;;
7529;SDS011;3806;52.270;10.544;2023-07-31T04:49:06;2.90;;;0.90;;
7529;SDS011;3806;52.270;10.544;2023-07-31T04:51:31;3.45;;;0.70;;
7529;SDS011;3806;52.270;10.544;2023-07-31T04:53:57;1.70;;;0.75;;
7529;SDS011;3806;52.270;10.544;2023-07-31T04:56:23;1.13;;;0.68;;
7529;SDS011;3806;52.270;10.544;2023-07-31T04:58:48;2.17;;;0.93;;
7529;SDS011;3806;52.270;10.544;2023-07-31T05:01:14;1.42;;;0.70;;
7529;SDS011;3806;52.270;10.544;2023-07-31T05:03:39;1.42;;;0.77;;
7529;SDS011;3806;52.270;10.544;2023-07-31T05:06:05;1.42;;;0.70;;
7529;SDS011;3806;52.270;10.544;2023-07-31T05:08:30;3.05;;;1.17;;
7529;SDS011;3806;52.270;10.544;2023-07-31T05:10:56;1.33;;;0.65;;
7529;SDS011;3806;52.270;10.544;2023-07-31T05:13:22;1.50;;;0.73;;
7529;SDS011;3806;52.270;10.544;2023-07-31T05:15:48;1.17;;;0.75;;
7529;SDS011;3806;52.270;10.544;2023-07-31T05:18:14;1.20;;;0.70;;
7529;SDS011;3806;52.270;10.544;2023-07-31T05:20:40;1.15;;;0.57;;
7529;SDS011;3806;52.270;10.544;2023-07-31T05:23:06;1.73;;;1.23;;
7529;SDS011;3806;52.270;10.544;2023-07-31T05:25:31;1.73;;;0.77;;
7529;SDS011;3806;52.270;10.544;2023-07-31T05:27:57;0.77;;;0.60;;
7529;SDS011;3806;52.270;10.544;2023-07-31T05:30:23;1.40;;;0.82;;
7529;SDS011;3806;52.270;10.544;2023-07-31T05:32:48;2.58;;;1.05;;
7529;SDS011;3806;52.270;10.544;2023-07-31T05:35:14;1.30;;;0.75;;
7529;SDS011;3806;52.270;10.544;2023-07-31T05:37:39;2.10;;;1.35;;
7529;SDS011;3806;52.270;10.544;2023-07-31T05:40:05;2.58;;;0.95;;
7529;SDS011;3806;52.270;10.544;2023-07-31T05:42:31;2.65;;;1.20;;
7529;SDS011;3806;52.270;10.544;2023-07-31T05:44:56;1.98;;;0.63;;
7529;SDS011;3806;52.270;10.544;2023-07-31T05:47:22;2.30;;;0.80;;
7529;SDS011;3806;52.270;10.544;2023-07-31T05:49:48;1.95;;;1.02;;
7529;SDS011;3806;52.270;10.544;2023-07-31T05:52:16;1.80;;;0.93;;
7529;SDS011;3806;52.270;10.544;2023-07-31T05:54:42;0.88;;;0.52;;
7529;SDS011;3806;52.270;10.544;2023-07-31T05:57:07;2.63;;;1.27;;
7529;SDS011;3806;52.270;10.544;2023-07-31T05:59:33;2.33;;;0.70;;
7529;SDS011;3806;52.270;10.544;2023-07-31T06:01:59;1.40;;;0.90;;
7529;SDS011;3806;52.270;10.544;2023-07-31T06:04:24;1.58;;;0.82;;
7529;SDS011;3806;52.270;10.544;2023-07-31T06:06:50;2.67;;;1.60;;
7529;SDS011;3806;52.270;10.544;2023-07-31T06:09:16;1.33;;;0.90;;
7529;SDS011;3806;52.270;10.544;2023-07-31T06:11:42;2.33;;;1.33;;
7529;SDS011;3806;52.270;10.544;2023-07-31T06:14:07;4.05;;;1.38;;
7529;SDS011;3806;52.270;10.544;2023-07-31T06:16:33;2.67;;;1.05;;
7529;SDS011;3806;52.270;10.544;2023-07-31T06:18:58;2.33;;;1.20;;
7529;SDS011;3806;52.270;10.544;2023-07-31T06:21:24;4.95;;;1.48;;
7529;SDS011;3806;52.270;10.544;2023-07-31T06:23:49;2.72;;;1.40;;
7529;SDS011;3806;52.270;10.544;2023-07-31T06:26:15;2.30;;;1.25;;
7529;SDS011;3806;52.270;10.544;2023-07-31T06:28:41;2.65;;;1.60;;
7529;SDS011;3806;52.270;10.544;2023-07-31T06:31:06;2.85;;;1.67;;
7529;SDS011;3806;52.270;10.544;2023-07-31T06:33:32;4.25;;;1.83;;
7529;SDS011;3806;52.270;10.544;2023-07-31T06:35:57;3.00;;;1.73;;
7529;SDS011;3806;52.270;10.544;2023-07-31T06:38:24;4.47;;;1.73;;
7529;SDS011;3806;52.270;10.544;2023-07-31T06:40:51;2.25;;;1.55;;
7529;SDS011;3806;52.270;10.544;2023-07-31T06:43:17;5.00;;;2.55;;
7529;SDS011;3806;52.270;10.544;2023-07-31T06:45:42;6.55;;;1.90;;
7529;SDS011;3806;52.270;10.544;2023-07-31T06:48:08;4.30;;;2.40;;
7529;SDS011;3806;52.270;10.544;2023-07-31T06:50:33;2.90;;;1.88;;
7529;SDS011;3806;52.270;10.544;2023-07-31T06:52:59;4.00;;;2.30;;
7529;SDS011;3806;52.270;10.544;2023-07-31T06:55:28;5.25;;;2.47;;
7529;SDS011;3806;52.270;10.544;2023-07-31T06:57:54;5.63;;;2.60;;
7529;SDS011;3806;52.270;10.544;2023-07-31T07:00:23;4.05;;;2.38;;
7529;SDS011;3806;52.270;10.544;2023-07-31T07:02:49;4.82;;;2.03;;
7529;SDS011;3806;52.270;10.544;2023-07-31T07:05:21;4.07;;;2.08;;
7529;SDS011;3806;52.270;10.544;2023-07-31T07:07:48;3.53;;;2.35;;
7529;SDS011;3806;52.270;10.544;2023-07-31T07:10:15;3.97;;;2.22;;
7529;SDS011;3806;52.270;10.544;2023-07-31T07:12:41;5.55;;;2.30;;
7529;SDS011;3806;52.270;10.544;2023-07-31T07:15:06;5.07;;;2.47;;
7529;SDS011;3806;52.270;10.544;2023-07-31T07:17:32;5.30;;;2.65;;
7529;SDS011;3806;52.270;10.544;2023-07-31T07:19:58;4.82;;;2.28;;
7529;SDS011;3806;52.270;10.544;2023-07-31T07:22:24;7.95;;;3.13;;
7529;SDS011;3806;52.270;10.544;2023-07-31T07:24:50;5.90;;;2.92;;
7529;SDS011;3806;52.270;10.544;2023-07-31T07:27:19;6.57;;;2.75;;
7529;SDS011;3806;52.270;10.544;2023-07-31T07:29:45;5.97;;;2.97;;
7529;SDS011;3806;52.270;10.544;2023-07-31T07:32:11;5.75;;;2.78;;
7529;SDS011;3806;52.270;10.544;2023-07-31T07:34:40;5.68;;;2.90;;
7529;SDS011;3806;52.270;10.544;2023-07-31T07:37:08;5.90;;;3.25;;
7529;SDS011;3806;52.270;10.544;2023-07-31T07:39:34;7.85;;;3.05;;
7529;SDS011;3806;52.270;10.544;2023-07-31T07:41:59;5.32;;;2.70;;
7529;SDS011;3806;52.270;10.544;2023-07-31T07:44:25;9.43;;;4.10;;
7529;SDS011;3806;52.270;10.544;2023-07-31T07:46:51;9.32;;;3.60;;
7529;SDS011;3806;52.270;10.544;2023-07-31T07:49:17;7.72;;;3.22;;
7529;SDS011;3806;52.270;10.544;2023-07-31T07:51:42;8.35;;;3.67;;
7529;SDS011;3806;52.270;10.544;2023-07-31T07:54:08;10.32;;;3.00;;
7529;SDS011;3806;52.270;10.544;2023-07-31T07:56:34;6.03;;;3.05;;
7529;SDS011;3806;52.270;10.544;2023-07-31T07:59:01;7.85;;;3.65;;
7529;SDS011;3806;52.270;10.544;2023-07-31T08:01:26;8.77;;;3.97;;
7529;SDS011;3806;52.270;10.544;2023-07-31T08:03:52;6.15;;;3.15;;
7529;SDS011;3806;52.270;10.544;2023-07-31T08:06:18;6.95;;;3.33;;
7529;SDS011;3806;52.270;10.544;2023-07-31T08:08:49;15.88;;;3.85;;
7529;SDS011;3806;52.270;10.544;2023-07-31T08:11:15;5.88;;;3.20;;
7529;SDS011;3806;52.270;10.544;2023-07-31T08:13:41;7.28;;;3.70;;
7529;SDS011;3806;52.270;10.544;2023-07-31T08:16:06;8.32;;;4.03;;
7529;SDS011;3806;52.270;10.544;2023-07-31T08:18:32;5.90;;;3.28;;
7529;SDS011;3806;52.270;10.544;2023-07-31T08:20:58;9.05;;;3.63;;
7529;SDS011;3806;52.270;10.544;2023-07-31T08:23:24;6.50;;;3.10;;
7529;SDS011;3806;52.270;10.544;2023-07-31T08:25:49;5.97;;;2.95;;
7529;SDS011;3806;52.270;10.544;2023-07-31T08:28:15;7.28;;;3.30;;
7529;SDS011;3806;52.270;10.544;2023-07-31T08:30:42;7.13;;;3.15;;
7529;SDS011;3806;52.270;10.544;2023-07-31T08:33:10;5.15;;;3.00;;
7529;SDS011;3806;52.270;10.544;2023-07-31T08:35:36;5.65;;;3.28;;
7529;SDS011;3806;52.270;10.544;2023-07-31T08:38:01;7.70;;;3.80;;
7529;SDS011;3806;52.270;10.544;2023-07-31T08:40:28;5.35;;;2.97;;
7529;SDS011;3806;52.270;10.544;2023-07-31T08:42:54;6.07;;;3.47;;
7529;SDS011;3806;52.270;10.544;2023-07-31T08:45:27;7.32;;;3.50;;
7529;SDS011;3806;52.270;10.544;2023-07-31T08:47:53;6.15;;;2.70;;
7529;SDS011;3806;52.270;10.544;2023-07-31T08:50:23;11.05;;;3.33;;
7529;SDS011;3806;52.270;10.544;2023-07-31T08:52:49;8.63;;;3.28;;
7529;SDS011;3806;52.270;10.544;2023-07-31T08:55:16;9.27;;;2.85;;
7529;SDS011;3806;52.270;10.544;2023-07-31T08:57:44;5.45;;;3.25;;
7529;SDS011;3806;52.270;10.544;2023-07-31T09:00:11;5.85;;;3.10;;
7529;SDS011;3806;52.270;10.544;2023-07-31T09:02:38;7.43;;;3.28;;
7529;SDS011;3806;52.270;10.544;2023-07-31T09:05:10;6.93;;;3.45;;
7529;SDS011;3806;52.270;10.544;2023-07-31T09:07:36;8.07;;;3.60;;
7529;SDS011;3806;52.270;10.544;2023-07-31T09:10:03;6.13;;;3.40;;
7529;SDS011;3806;52.270;10.544;2023-07-31T09:12:30;7.00;;;3.58;;
7529;SDS011;3806;52.270;10.544;2023-07-31T09:14:56;4.70;;;3.00;;
7529;SDS011;3806;52.270;10.544;2023-07-31T09:17:29;4.78;;;2.85;;
7529;SDS011;3806;52.270;10.544;2023-07-31T09:19:56;10.85;;;3.45;;
7529;SDS011;3806;52.270;10.544;2023-07-31T09:22:31;6.43;;;3.35;;
7529;SDS011;3806;52.270;10.544;2023-07-31T09:27:50;6.82;;;3.28;;
7529;SDS011;3806;52.270;10.544;2023-07-31T09:30:19;4.80;;;2.95;;
7529;SDS011;3806;52.270;10.544;2023-07-31T09:32:47;7.07;;;3.75;;
7529;SDS011;3806;52.270;10.544;2023-07-31T09:35:22;5.00;;;2.78;;
7529;SDS011;3806;52.270;10.544;2023-07-31T09:38:06;6.10;;;3.05;;
7529;SDS011;3806;52.270;10.544;2023-07-31T09:40:46;6.72;;;2.83;;
7529;SDS011;3806;52.270;10.544;2023-07-31T09:43:13;5.35;;;2.67;;
7529;SDS011;3806;52.270;10.544;2023-07-31T09:45:46;6.85;;;2.65;;
7529;SDS011;3806;52.270;10.544;2023-07-31T09:48:16;5.13;;;2.70;;
7529;SDS011;3806;52.270;10.544;2023-07-31T09:50:47;6.00;;;2.60;;
7529;SDS011;3806;52.270;10.544;2023-07-31T09:53:14;6.28;;;2.30;;
7529;SDS011;3806;52.270;10.544;2023-07-31T09:55:43;5.93;;;2.45;;
7529;SDS011;3806;52.270;10.544;2023-07-31T09:58:09;5.95;;;2.85;;
7529;SDS011;3806;52.270;10.544;2023-07-31T10:00:39;4.63;;;2.22;;
7529;SDS011;3806;52.270;10.544;2023-07-31T10:03:05;5.28;;;2.50;;
7529;SDS011;3806;52.270;10.544;2023-07-31T10:05:36;6.32;;;2.53;;
7529;SDS011;3806;52.270;10.544;2023-07-31T10:08:06;3.72;;;2.70;;
7529;SDS011;3806;52.270;10.544;2023-07-31T10:10:35;7.95;;;2.92;;
7529;SDS011;3806;52.270;10.544;2023-07-31T10:13:02;22.17;;;2.97;;
7529;SDS011;3806;52.270;10.544;2023-07-31T10:15:30;9.93;;;2.47;;
7529;SDS011;3806;52.270;10.544;2023-07-31T10:17:57;4.05;;;2.38;;
7529;SDS011;3806;52.270;10.544;2023-07-31T10:20:25;4.65;;;2.45;;
7529;SDS011;3806;52.270;10.544;2023-07-31T10:22:52;5.88;;;2.97;;
7529;SDS011;3806;52.270;10.544;2023-07-31T10:25:24;4.38;;;2.58;;
7529;SDS011;3806;52.270;10.544;2023-07-31T10:27:54;4.28;;;2.38;;
7529;SDS011;3806;52.270;10.544;2023-07-31T10:30:22;4.35;;;2.13;;
7529;SDS011;3806;52.270;10.544;2023-07-31T10:32:51;3.58;;;1.95;;
7529;SDS011;3806;52.270;10.544;2023-07-31T10:35:17;8.68;;;2.40;;
7529;SDS011;3806;52.270;10.544;2023-07-31T10:37:43;5.60;;;2.13;;
7529;SDS011;3806;52.270;10.544;2023-07-31T10:40:10;3.38;;;1.80;;
7529;SDS011;3806;52.270;10.544;2023-07-31T10:42:44;3.45;;;1.70;;
7529;SDS011;3806;52.270;10.544;2023-07-31T10:45:12;4.20;;;1.90;;
7529;SDS011;3806;52.270;10.544;2023-07-31T10:50:11;3.25;;;1.88;;
7529;SDS011;3806;52.270;10.544;2023-07-31T10:52:45;3.30;;;1.48;;
7529;SDS011;3806;52.270;10.544;2023-07-31T10:57:51;3.45;;;1.55;;
7529;SDS011;3806;52.270;10.544;2023-07-31T11:00:30;5.10;;;1.92;;
7529;SDS011;3806;52.270;10.544;2023-07-31T11:03:08;2.88;;;1.60;;
7529;SDS011;3806;52.270;10.544;2023-07-31T11:05:42;3.33;;;1.67;;
7529;SDS011;3806;52.270;10.544;2023-07-31T11:08:10;5.40;;;1.40;;
7529;SDS011;3806;52.270;10.544;2023-07-31T11:10:44;5.05;;;1.67;;
7529;SDS011;3806;52.270;10.544;2023-07-31T11:13:11;3.10;;;1.75;;
7529;SDS011;3806;52.270;10.544;2023-07-31T11:15:37;3.95;;;1.58;;
7529;SDS011;3806;52.270;10.544;2023-07-31T11:18:02;2.97;;;1.50;;
7529;SDS011;3806;52.270;10.544;2023-07-31T11:20:35;2.70;;;1.50;;
7529;SDS011;3806;52.270;10.544;2023-07-31T11:23:07;3.08;;;1.80;;
7529;SDS011;3806;52.270;10.544;2023-07-31T11:25:37;4.05;;;1.42;;
7529;SDS011;3806;52.270;10.544;2023-07-31T11:28:10;2.35;;;1.40;;
7529;SDS011;3806;52.270;10.544;2023-07-31T11:30:37;3.67;;;1.58;;
7529;SDS011;3806;52.270;10.544;2023-07-31T11:33:04;3.58;;;1.80;;
7529;SDS011;3806;52.270;10.544;2023-07-31T11:35:34;4.95;;;1.40;;
7529;SDS011;3806;52.270;10.544;2023-07-31T11:38:01;4.57;;;1.70;;
7529;SDS011;3806;52.270;10.544;2023-07-31T11:40:28;2.65;;;1.75;;
7529;SDS011;3806;52.270;10.544;2023-07-31T11:42:57;2.90;;;1.45;;
7529;SDS011;3806;52.270;10.544;2023-07-31T11:45:25;3.58;;;1.85;;
7529;SDS011;3806;52.270;10.544;2023-07-31T11:47:52;2.35;;;1.55;;
7529;SDS011;3806;52.270;10.544;2023-07-31T11:50:19;3.92;;;1.70;;
7529;SDS011;3806;52.270;10.544;2023-07-31T11:52:45;4.65;;;2.08;;
7529;SDS011;3806;52.270;10.544;2023-07-31T11:55:14;3.30;;;1.42;;
7529;SDS011;3806;52.270;10.544;2023-07-31T11:57:47;4.45;;;1.98;;
7529;SDS011;3806;52.270;10.544;2023-07-31T12:00:13;5.40;;;2.50;;
7529;SDS011;3806;52.270;10.544;2023-07-31T12:02:40;3.13;;;1.45;;
7529;SDS011;3806;52.270;10.544;2023-07-31T12:05:09;2.90;;;1.50;;
7529;SDS011;3806;52.270;10.544;2023-07-31T12:07:46;3.85;;;1.83;;
7529;SDS011;3806;52.270;10.544;2023-07-31T12:10:26;2.58;;;1.75;;
7529;SDS011;3806;52.270;10.544;2023-07-31T12:13:06;3.33;;;2.10;;
7529;SDS011;3806;52.270;10.544;2023-07-31T12:15:39;2.78;;;1.70;;
7529;SDS011;3806;52.270;10.544;2023-07-31T12:18:15;2.95;;;1.70;;
7529;SDS011;3806;52.270;10.544;2023-07-31T12:20:45;3.25;;;1.85;;
7529;SDS011;3806;52.270;10.544;2023-07-31T12:23:13;4.20;;;1.85;;
7529;SDS011;3806;52.270;10.544;2023-07-31T12:25:40;3.25;;;1.98;;
7529;SDS011;3806;52.270;10.544;2023-07-31T12:28:06;4.07;;;1.95;;
7529;SDS011;3806;52.270;10.544;2023-07-31T12:30:38;4.20;;;1.63;;
7529;SDS011;3806;52.270;10.544;2023-07-31T12:33:05;3.15;;;1.67;;
7529;SDS011;3806;52.270;10.544;2023-07-31T12:35:37;2.95;;;1.83;;
7529;SDS011;3806;52.270;10.544;2023-07-31T12:38:05;2.58;;;1.50;;
7529;SDS011;3806;52.270;10.544;2023-07-31T12:40:31;4.15;;;1.60;;
7529;SDS011;3806;52.270;10.544;2023-07-31T12:42:57;3.25;;;1.60;;
7529;SDS011;3806;52.270;10.544;2023-07-31T12:45:23;3.63;;;1.67;;
7529;SDS011;3806;52.270;10.544;2023-07-31T12:47:48;3.53;;;1.58;;
7529;SDS011;3806;52.270;10.544;2023-07-31T12:50:15;3.78;;;1.52;;
7529;SDS011;3806;52.270;10.544;2023-07-31T12:52:40;2.35;;;1.45;;
7529;SDS011;3806;52.270;10.544;2023-07-31T12:55:06;3.20;;;1.73;;
7529;SDS011;3806;52.270;10.544;2023-07-31T12:57:32;4.68;;;1.67;;
7529;SDS011;3806;52.270;10.544;2023-07-31T12:59:57;3.05;;;1.55;;
7529;SDS011;3806;52.270;10.544;2023-07-31T13:02:23;2.67;;;1.65;;
7529;SDS011;3806;52.270;10.544;2023-07-31T13:04:49;2.42;;;1.30;;
7529;SDS011;3806;52.270;10.544;2023-07-31T13:07:15;2.15;;;1.23;;
7529;SDS011;3806;52.270;10.544;2023-07-31T13:09:41;2.40;;;1.35;;
7529;SDS011;3806;52.270;10.544;2023-07-31T13:12:07;2.33;;;1.45;;
7529;SDS011;3806;52.270;10.544;2023-07-31T13:14:33;1.90;;;1.45;;
7529;SDS011;3806;52.270;10.544;2023-07-31T13:16:58;2.08;;;1.30;;
7529;SDS011;3806;52.270;10.544;2023-07-31T13:19:24;1.80;;;1.38;;
7529;SDS011;3806;52.270;10.544;2023-07-31T13:21:49;2.53;;;1.40;;
7529;SDS011;3806;52.270;10.544;2023-07-31T13:24:15;1.40;;;0.93;;
7529;SDS011;3806;52.270;10.544;2023-07-31T13:26:40;3.70;;;1.38;;
7529;SDS011;3806;52.270;10.544;2023-07-31T13:29:06;2.17;;;1.10;;
7529;SDS011;3806;52.270;10.544;2023-07-31T13:31:31;2.22;;;1.15;;
7529;SDS011;3806;52.270;10.544;2023-07-31T13:33:57;2.50;;;1.55;;
7529;SDS011;3806;52.270;10.544;2023-07-31T13:36:23;1.65;;;1.02;;
7529;SDS011;3806;52.270;10.544;2023-07-31T13:38:48;3.00;;;1.33;;
7529;SDS011;3806;52.270;10.544;2023-07-31T13:41:14;2.00;;;1.20;;
7529;SDS011;3806;52.270;10.544;2023-07-31T13:43:39;1.67;;;1.02;;
7529;SDS011;3806;52.270;10.544;2023-07-31T13:46:06;1.52;;;0.90;;
7529;SDS011;3806;52.270;10.544;2023-07-31T13:48:35;2.28;;;0.98;;
7529;SDS011;3806;52.270;10.544;2023-07-31T13:51:01;0.93;;;0.60;;
7529;SDS011;3806;52.270;10.544;2023-07-31T13:53:27;2.22;;;1.10;;
7529;SDS011;3806;52.270;10.544;2023-07-31T13:55:52;0.93;;;0.50;;
7529;SDS011;3806;52.270;10.544;2023-07-31T13:58:18;0.65;;;0.50;;
7529;SDS011;3806;52.270;10.544;2023-07-31T14:00:43;1.02;;;0.63;;
7529;SDS011;3806;52.270;10.544;2023-07-31T14:03:09;1.25;;;0.70;;
7529;SDS011;3806;52.270;10.544;2023-07-31T14:05:34;0.40;;;0.30;;
7529;SDS011;3806;52.270;10.544;2023-07-31T14:08:00;0.88;;;0.60;;
7529;SDS011;3806;52.270;10.544;2023-07-31T14:10:26;2.30;;;0.80;;
7529;SDS011;3806;52.270;10.544;2023-07-31T14:12:52;0.85;;;0.50;;
7529;SDS011;3806;52.270;10.544;2023-07-31T14:15:17;0.60;;;0.55;;
7529;SDS011;3806;52.270;10.544;2023-07-31T14:17:43;1.02;;;0.45;;
7529;SDS011;3806;52.270;10.544;2023-07-31T14:20:08;1.55;;;0.73;;
7529;SDS011;3806;52.270;10.544;2023-07-31T14:22:34;1.60;;;0.57;;
7529;SDS011;3806;52.270;10.544;2023-07-31T14:25:00;1.35;;;0.73;;
7529;SDS011;3806;52.270;10.544;2023-07-31T14:27:26;0.55;;;0.50;;
7529;SDS011;3806;52.270;10.544;2023-07-31T14:29:52;0.95;;;0.50;;
7529;SDS011;3806;52.270;10.544;2023-07-31T14:32:17;1.35;;;0.50;;
7529;SDS011;3806;52.270;10.544;2023-07-31T14:34:43;2.05;;;0.60;;
7529;SDS011;3806;52.270;10.544;2023-07-31T14:37:08;0.45;;;0.43;;
7529;SDS011;3806;52.270;10.544;2023-07-31T14:39:34;0.65;;;0.40;;
7529;SDS011;3806;52.270;10.544;2023-07-31T14:41:59;0.77;;;0.50;;
7529;SDS011;3806;52.270;10.544;2023-07-31T14:44:25;0.75;;;0.63;;
7529;SDS011;3806;52.270;10.544;2023-07-31T14:46:50;0.80;;;0.47;;
7529;SDS011;3806;52.270;10.544;2023-07-31T14:49:16;0.85;;;0.57;;
7529;SDS011;3806;52.270;10.544;2023-07-31T14:51:42;0.90;;;0.63;;
7529;SDS011;3806;52.270;10.544;2023-07-31T14:54:07;3.42;;;1.00;;
7529;SDS011;3806;52.270;10.544;2023-07-31T14:56:33;1.95;;;0.65;;
7529;SDS011;3806;52.270;10.544;2023-07-31T14:58:59;0.77;;;0.68;;
7529;SDS011;3806;52.270;10.544;2023-07-31T15:01:24;0.98;;;0.70;;
7529;SDS011;3806;52.270;10.544;2023-07-31T15:03:50;0.77;;;0.60;;
7529;SDS011;3806;52.270;10.544;2023-07-31T15:06:15;1.15;;;0.90;;
7529;SDS011;3806;52.270;10.544;2023-07-31T15:08:41;1.33;;;0.73;;
7529;SDS011;3806;52.270;10.544;2023-07-31T15:11:07;1.27;;;0.73;;
7529;SDS011;3806;52.270;10.544;2023-07-31T15:13:32;0.98;;;0.88;;